Time;durP1;ratioP1;P1;durP2;ratioP2;P2;SDS_P1;SDS_P2;PMS_P1;PMS_P2;Temp;Humidity;BMP_temperature;BMP_pressure;BME280_temperature;BME280_humidity;BME280_pressure;Samples;Min_cycle;Max_cycle;Signal;HPM_P1;HPM_P2
2023/01/13 00:01:21;;;;;;;407.30;225.07;;;;;;;;;;4944353;28;20318;-70
2023/01/13 00:03:47;;;;;;;414.20;223.80;;;;;;;;;;4947253;28;20226;-67
2023/01/13 00:06:14;;;;;;;406.50;231.50;;;;;;;;;;4945854;28;20266;-67
2023/01/13 00:08:41;;;;;;;460.53;262.07;;;;;;;;;;4942833;28;21126;-67
2023/01/13 00:11:07;;;;;;;447.63;243.70;;;;;;;;;;4944602;28;20222;-67
2023/01/13 00:13:34;;;;;;;453.10;255.00;;;;;;;;;;4962453;28;20594;-68
2023/01/13 00:16:04;;;;;;;425.40;237.03;;;;;;;;;;4960130;28;20226;-67
2023/01/13 00:18:30;;;;;;;426.37;237.63;;;;;;;;;;4938747;28;20207;-67
2023/01/13 00:21:04;;;;;;;414.00;227.67;;;;;;;;;;4935627;28;20887;-67
2023/01/13 00:23:31;;;;;;;417.57;229.87;;;;;;;;;;4945996;28;20254;-71
2023/01/13 00:25:58;;;;;;;394.47;223.67;;;;;;;;;;4946169;28;20316;-68
2023/01/13 00:28:25;;;;;;;453.70;252.23;;;;;;;;;;4941712;28;20244;-67
2023/01/13 00:30:51;;;;;;;473.00;271.50;;;;;;;;;;4928092;28;20439;-69
2023/01/13 00:33:17;;;;;;;460.47;247.73;;;;;;;;;;4940775;28;20267;-69
2023/01/13 00:35:43;;;;;;;465.63;252.90;;;;;;;;;;4939341;28;20687;-70
2023/01/13 00:38:09;;;;;;;460.17;257.93;;;;;;;;;;4946886;28;20215;-68
2023/01/13 00:40:35;;;;;;;409.40;226.83;;;;;;;;;;4937257;28;20187;-68
2023/01/13 00:45:46;;;;;;;423.53;239.53;;;;;;;;;;4930515;28;20243;-67
2023/01/13 00:48:12;;;;;;;433.13;237.43;;;;;;;;;;4944621;28;20270;-67
2023/01/13 00:50:38;;;;;;;399.07;219.33;;;;;;;;;;4944828;28;20252;-69
2023/01/13 00:53:04;;;;;;;435.50;238.53;;;;;;;;;;4946556;28;20223;-69
2023/01/13 00:55:31;;;;;;;390.90;225.07;;;;;;;;;;4953709;28;20421;-67
2023/01/13 00:58:02;;;;;;;434.90;243.60;;;;;;;;;;4941037;28;20386;-68
2023/01/13 01:00:31;;;;;;;401.90;219.47;;;;;;;;;;4945323;28;20219;-66
2023/01/13 01:02:57;;;;;;;422.30;233.70;;;;;;;;;;4943954;28;20677;-67
2023/01/13 01:05:24;;;;;;;450.77;253.13;;;;;;;;;;4940850;28;20214;-70
2023/01/13 01:07:50;;;;;;;395.73;214.93;;;;;;;;;;4938230;28;20196;-69
2023/01/13 01:10:16;;;;;;;458.97;257.30;;;;;;;;;;4959769;28;20315;-69
2023/01/13 01:12:42;;;;;;;406.40;221.33;;;;;;;;;;4950417;28;20233;-69
2023/01/13 01:15:08;;;;;;;439.53;240.73;;;;;;;;;;4926150;28;20238;-67
2023/01/13 01:17:35;;;;;;;412.73;231.17;;;;;;;;;;4971199;28;20532;-68
2023/01/13 01:20:01;;;;;;;461.63;251.50;;;;;;;;;;4958597;28;20410;-68
2023/01/13 01:22:27;;;;;;;401.53;223.97;;;;;;;;;;4951132;28;20206;-67
2023/01/13 01:24:53;;;;;;;390.47;218.53;;;;;;;;;;4949556;28;20438;-67
2023/01/13 01:27:19;;;;;;;429.63;233.17;;;;;;;;;;4959599;28;20294;-65
2023/01/13 01:29:45;;;;;;;414.20;228.10;;;;;;;;;;4932250;28;20783;-68
2023/01/13 01:32:11;;;;;;;419.27;223.47;;;;;;;;;;4946815;28;20258;-67
2023/01/13 01:34:38;;;;;;;428.10;233.90;;;;;;;;;;4939044;28;20261;-66
2023/01/13 01:37:04;;;;;;;422.30;233.03;;;;;;;;;;4940020;28;20268;-67
2023/01/13 01:39:29;;;;;;;401.47;223.03;;;;;;;;;;4948499;28;20223;-67
2023/01/13 01:44:43;;;;;;;439.83;244.50;;;;;;;;;;4931835;28;20226;-66
2023/01/13 01:47:11;;;;;;;457.47;258.10;;;;;;;;;;4940113;28;20215;-66
2023/01/13 01:49:38;;;;;;;413.20;227.37;;;;;;;;;;4940915;28;20274;-66
2023/01/13 01:52:15;;;;;;;453.00;249.90;;;;;;;;;;4944563;28;20535;-66
2023/01/13 01:54:59;;;;;;;424.87;239.10;;;;;;;;;;4941350;28;20355;-66
2023/01/13 01:57:29;;;;;;;471.27;263.07;;;;;;;;;;4942204;28;20239;-67
2023/01/13 01:59:57;;;;;;;429.63;242.10;;;;;;;;;;4934355;28;20258;-66
2023/01/13 02:02:23;;;;;;;468.13;249.40;;;;;;;;;;4958606;28;20618;-66
2023/01/13 02:04:53;;;;;;;421.93;224.50;;;;;;;;;;4946984;28;20213;-66
2023/01/13 02:07:23;;;;;;;431.77;235.47;;;;;;;;;;4961558;28;20664;-66
2023/01/13 02:09:49;;;;;;;412.60;226.57;;;;;;;;;;4957218;28;20261;-67
2023/01/13 02:12:28;;;;;;;410.03;226.47;;;;;;;;;;4947853;28;20249;-68
2023/01/13 02:14:54;;;;;;;420.37;234.33;;;;;;;;;;4938449;28;20623;-66
2023/01/13 02:17:20;;;;;;;416.03;228.60;;;;;;;;;;4943368;28;20223;-68
2023/01/13 02:19:46;;;;;;;443.40;242.30;;;;;;;;;;4973155;28;20283;-66
2023/01/13 02:22:15;;;;;;;397.90;215.43;;;;;;;;;;4953189;28;20186;-66
2023/01/13 02:25:00;;;;;;;448.90;242.40;;;;;;;;;;4920857;28;20238;-68
2023/01/13 02:27:55;;;;;;;431.93;236.43;;;;;;;;;;4925024;28;20253;-66
2023/01/13 02:33:29;;;;;;;389.00;214.30;;;;;;;;;;4921443;28;20303;-67
2023/01/13 02:36:04;;;;;;;437.53;241.77;;;;;;;;;;4921499;28;20215;-66
2023/01/13 02:38:50;;;;;;;451.30;247.57;;;;;;;;;;4931265;28;20213;-68
2023/01/13 02:44:13;;;;;;;393.10;216.10;;;;;;;;;;4967199;28;20306;-66
2023/01/13 02:46:50;;;;;;;465.77;266.50;;;;;;;;;;4944203;28;20246;-69
2023/01/13 02:49:21;;;;;;;404.00;225.73;;;;;;;;;;4933557;28;20226;-66
2023/01/13 02:51:48;;;;;;;389.70;213.40;;;;;;;;;;4939417;28;20557;-67
2023/01/13 02:54:20;;;;;;;412.63;225.17;;;;;;;;;;4931571;28;20224;-66
2023/01/13 02:56:47;;;;;;;425.63;242.30;;;;;;;;;;4941834;28;20220;-66
2023/01/13 02:59:13;;;;;;;399.77;222.30;;;;;;;;;;4935912;28;20219;-66
2023/01/13 03:01:40;;;;;;;468.20;258.33;;;;;;;;;;4937693;28;20677;-66
2023/01/13 03:04:33;;;;;;;403.73;225.37;;;;;;;;;;4945266;28;20234;-66
2023/01/13 03:07:11;;;;;;;444.93;249.50;;;;;;;;;;4946214;28;20487;-69
2023/01/13 03:09:40;;;;;;;372.07;202.20;;;;;;;;;;4944603;28;20214;-68
2023/01/13 03:12:15;;;;;;;401.07;224.83;;;;;;;;;;4951848;28;20277;-66
2023/01/13 03:14:40;;;;;;;431.90;234.37;;;;;;;;;;4953024;23;20423;31
2023/01/13 03:17:31;;;;;;;444.23;238.93;;;;;;;;;;4983698;22;20325;-71
2023/01/13 03:20:08;;;;;;;428.77;235.97;;;;;;;;;;4940288;28;20258;-71
2023/01/13 03:22:42;;;;;;;365.13;194.07;;;;;;;;;;4950946;28;20220;-71
2023/01/13 03:25:14;;;;;;;451.13;249.20;;;;;;;;;;5014019;28;20287;-72
2023/01/13 03:27:56;;;;;;;436.40;235.10;;;;;;;;;;5011935;28;20303;-71
2023/01/13 03:31:13;;;;;;;479.37;255.90;;;;;;;;;;5008751;28;20255;-71
2023/01/13 03:33:50;;;;;;;433.60;235.53;;;;;;;;;;4989831;28;20264;-70
2023/01/13 03:36:17;;;;;;;449.93;241.37;;;;;;;;;;5009687;28;20650;-70
2023/01/13 03:38:50;;;;;;;451.03;241.27;;;;;;;;;;5002599;28;20385;-71
2023/01/13 03:41:46;;;;;;;384.93;208.30;;;;;;;;;;5015448;28;20238;-71
2023/01/13 03:44:22;;;;;;;462.07;244.97;;;;;;;;;;5001058;28;20239;-70
2023/01/13 03:46:54;;;;;;;412.40;219.43;;;;;;;;;;5002513;28;20543;-71
2023/01/13 03:49:25;;;;;;;376.50;196.83;;;;;;;;;;5017501;28;20222;-71
2023/01/13 03:52:15;;;;;;;392.70;205.20;;;;;;;;;;5012172;28;20219;-71
2023/01/13 03:54:44;;;;;;;455.03;239.00;;;;;;;;;;5012158;28;20695;-70
2023/01/13 03:57:13;;;;;;;421.97;226.80;;;;;;;;;;5016122;28;20238;-71
2023/01/13 03:59:42;;;;;;;452.43;248.73;;;;;;;;;;5008114;28;20267;-71
2023/01/13 04:02:27;;;;;;;368.77;194.30;;;;;;;;;;5003763;28;20221;-70
2023/01/13 04:05:21;;;;;;;435.53;234.47;;;;;;;;;;5013128;28;20245;-71
2023/01/13 04:07:51;;;;;;;420.50;224.97;;;;;;;;;;5013651;28;20207;-70
2023/01/13 04:10:26;;;;;;;407.10;216.10;;;;;;;;;;5017157;28;20183;-69
2023/01/13 04:13:09;;;;;;;464.37;244.93;;;;;;;;;;5021359;28;20291;-71
2023/01/13 04:15:37;;;;;;;367.03;202.03;;;;;;;;;;5007383;28;20227;-70
2023/01/13 04:18:12;;;;;;;430.43;227.30;;;;;;;;;;5018710;28;20295;-69
2023/01/13 04:20:52;;;;;;;393.17;212.57;;;;;;;;;;5010277;28;20212;-71
2023/01/13 04:23:28;;;;;;;435.40;236.60;;;;;;;;;;5021783;28;20216;-71
2023/01/13 04:25:57;;;;;;;404.40;221.37;;;;;;;;;;5033895;28;20265;-70
2023/01/13 04:28:23;;;;;;;412.30;224.03;;;;;;;;;;5016887;28;20184;-70
2023/01/13 04:30:50;;;;;;;346.03;183.37;;;;;;;;;;5014937;28;20637;-71
2023/01/13 04:33:20;;;;;;;450.83;236.37;;;;;;;;;;5014579;28;20216;-69
2023/01/13 04:35:55;;;;;;;366.87;197.60;;;;;;;;;;5010590;28;20262;-69
2023/01/13 04:38:24;;;;;;;464.00;245.37;;;;;;;;;;5014368;28;20204;-70
2023/01/13 04:40:50;;;;;;;396.13;210.17;;;;;;;;;;5008548;28;20228;-70
2023/01/13 04:43:16;;;;;;;392.27;205.97;;;;;;;;;;5012561;28;20203;-70
2023/01/13 04:45:43;;;;;;;358.70;192.53;;;;;;;;;;5020616;28;20742;-70
2023/01/13 04:48:13;;;;;;;432.37;237.03;;;;;;;;;;5017938;28;20223;-69
2023/01/13 04:50:39;;;;;;;426.23;225.13;;;;;;;;;;5009592;28;20234;-73
2023/01/13 04:53:08;;;;;;;423.37;233.13;;;;;;;;;;5008348;28;20333;-70
2023/01/13 04:55:35;;;;;;;425.20;228.60;;;;;;;;;;5020476;28;20235;-71
2023/01/13 04:58:11;;;;;;;414.03;217.20;;;;;;;;;;5005087;28;20193;-71
2023/01/13 05:00:43;;;;;;;454.90;251.50;;;;;;;;;;5008392;28;20373;-70
2023/01/13 05:03:12;;;;;;;435.00;243.40;;;;;;;;;;5012485;28;20562;-70
2023/01/13 05:05:50;;;;;;;376.27;199.50;;;;;;;;;;5015228;28;20335;-71
2023/01/13 05:08:25;;;;;;;358.83;193.00;;;;;;;;;;5024466;28;20569;-69
2023/01/13 05:10:54;;;;;;;458.17;255.17;;;;;;;;;;5005374;28;20184;-69
2023/01/13 05:18:49;;;;;;;413.20;226.27;;;;;;;;;;5025732;28;20313;-71
2023/01/13 05:26:58;;;;;;;356.77;196.20;;;;;;;;;;5004435;28;20872;-72
2023/01/13 05:29:33;;;;;;;455.63;249.67;;;;;;;;;;5024152;28;20997;-72
2023/01/13 05:32:05;;;;;;;458.80;255.63;;;;;;;;;;5014504;28;21680;-72
2023/01/13 05:34:31;;;;;;;391.10;214.60;;;;;;;;;;5013835;28;21575;-72
2023/01/13 05:37:02;;;;;;;354.97;190.50;;;;;;;;;;5007592;28;20503;-73
2023/01/13 05:43:18;;;;;;;368.50;201.80;;;;;;;;;;5013519;28;20264;-73
2023/01/13 05:45:11;;;;;;;398.57;224.60;;;;;;;;;;5011138;28;20674;-73
2023/01/13 05:48:06;;;;;;;429.47;230.80;;;;;;;;;;5012592;28;20357;-71
2023/01/13 05:50:33;;;;;;;465.93;260.43;;;;;;;;;;5007991;28;20230;-70
2023/01/13 05:52:59;;;;;;;419.50;230.70;;;;;;;;;;5027559;28;20928;-72
2023/01/13 05:55:28;;;;;;;377.43;205.47;;;;;;;;;;5013902;28;20192;-73
2023/01/13 05:57:57;;;;;;;372.13;197.77;;;;;;;;;;5014174;28;20474;-73
2023/01/13 06:00:26;;;;;;;355.43;197.50;;;;;;;;;;5015906;28;20661;-73
2023/01/13 06:03:01;;;;;;;451.37;241.83;;;;;;;;;;5021187;28;20864;-72
2023/01/13 06:05:27;;;;;;;406.87;217.70;;;;;;;;;;5008326;28;20283;-72
2023/01/13 06:08:03;;;;;;;452.97;249.10;;;;;;;;;;5020268;28;20199;-73
2023/01/13 06:10:33;;;;;;;391.43;213.27;;;;;;;;;;5011346;28;20763;-71
2023/01/13 06:13:14;;;;;;;;;;;;;;;;;;;;;
2023/01/13 06:15:49;;;;;;;438.40;239.17;;;;;;;;;;5020785;28;20287;-69
2023/01/13 06:18:15;;;;;;;481.63;265.53;;;;;;;;;;5022733;28;20260;-72
2023/01/13 06:20:50;;;;;;;418.27;232.87;;;;;;;;;;5006218;28;20220;-72
2023/01/13 06:23:16;;;;;;;483.73;261.97;;;;;;;;;;5010667;28;20358;-71
2023/01/13 06:26:04;;;;;;;555.38;302.75;;;;;;;;;;5010134;28;20570;-71
2023/01/13 06:28:32;;;;;;;516.80;288.83;;;;;;;;;;5026681;28;20226;-72
2023/01/13 06:31:01;;;;;;;484.70;255.03;;;;;;;;;;4999998;28;21070;-73
2023/01/13 06:33:32;;;;;;;569.73;310.97;;;;;;;;;;5013731;28;20263;-72
2023/01/13 06:36:06;;;;;;;539.07;294.17;;;;;;;;;;5010822;28;20204;-73
2023/01/13 06:38:33;;;;;;;493.43;262.83;;;;;;;;;;5013956;28;20299;-72
2023/01/13 06:41:03;;;;;;;506.17;280.47;;;;;;;;;;5018442;28;20265;-78
2023/01/13 06:43:36;;;;;;;518.50;291.00;;;;;;;;;;5012670;28;20234;-75
2023/01/13 06:46:18;;;;;;;482.77;263.33;;;;;;;;;;5023387;28;20259;-78
2023/01/13 06:48:44;;;;;;;516.30;284.10;;;;;;;;;;5017986;28;20553;-78
2023/01/13 06:51:16;;;;;;;483.10;264.23;;;;;;;;;;5020754;28;20219;-68
2023/01/13 06:53:51;;;;;;;560.37;304.87;;;;;;;;;;4999741;28;20331;-68
2023/01/13 06:56:17;;;;;;;577.73;325.13;;;;;;;;;;5005402;28;20306;-69
2023/01/13 06:58:48;;;;;;;554.07;298.70;;;;;;;;;;5001763;28;20214;-66
2023/01/13 07:01:17;;;;;;;543.77;298.90;;;;;;;;;;5016117;28;20272;-66
2023/01/13 07:03:46;;;;;;;586.40;325.73;;;;;;;;;;5010367;28;20723;-66
2023/01/13 07:06:13;;;;;;;543.40;287.53;;;;;;;;;;5004713;28;20307;-66
2023/01/13 07:08:39;;;;;;;567.90;309.83;;;;;;;;;;5009115;28;20278;-66
2023/01/13 07:11:06;;;;;;;503.67;273.23;;;;;;;;;;5016755;28;20295;-66
2023/01/13 07:16:19;;;;;;;551.83;304.23;;;;;;;;;;4994455;28;20251;-72
2023/01/13 07:18:55;;;;;;;518.93;281.50;;;;;;;;;;5025026;28;20303;-77
2023/01/13 07:21:23;;;;;;;490.87;261.03;;;;;;;;;;5004555;28;20286;-70
2023/01/13 07:23:50;;;;;;;461.43;252.57;;;;;;;;;;5031577;28;20215;-72
2023/01/13 07:26:19;;;;;;;493.30;272.50;;;;;;;;;;5012649;28;20263;-70
2023/01/13 07:28:48;;;;;;;529.20;289.67;;;;;;;;;;5007826;28;20872;-74
2023/01/13 07:31:26;;;;;;;501.67;279.00;;;;;;;;;;5013358;28;20254;-73
2023/01/13 07:34:00;;;;;;;520.83;287.00;;;;;;;;;;5015716;28;20219;-74
2023/01/13 07:36:35;;;;;;;467.73;257.10;;;;;;;;;;5025695;28;20297;-72
2023/01/13 07:39:25;;;;;;;533.00;289.80;;;;;;;;;;4997548;28;20214;-71
2023/01/13 07:45:26;;;;;;;529.37;287.17;;;;;;;;;;5020870;28;20241;-74
2023/01/13 07:48:07;;;;;;;496.33;265.70;;;;;;;;;;5011340;28;20323;-75
2023/01/13 07:50:33;;;;;;;505.13;276.97;;;;;;;;;;5006891;28;20263;-73
2023/01/13 07:53:00;;;;;;;505.80;276.40;;;;;;;;;;5012667;28;20878;-71
2023/01/13 07:55:29;;;;;;;498.23;277.33;;;;;;;;;;5022574;28;20192;-72
2023/01/13 07:58:05;;;;;;;476.07;256.60;;;;;;;;;;5019549;28;20275;-72
2023/01/13 08:00:40;;;;;;;438.47;242.77;;;;;;;;;;5033845;28;20582;-73
2023/01/13 08:03:06;;;;;;;487.63;259.13;;;;;;;;;;5028575;28;20386;-72
2023/01/13 08:05:34;;;;;;;491.57;264.50;;;;;;;;;;5031324;28;20439;-73
2023/01/13 08:08:04;;;;;;;468.17;251.47;;;;;;;;;;5029902;28;20495;-72
2023/01/13 08:10:39;;;;;;;464.27;253.10;;;;;;;;;;5030731;28;20244;-73
2023/01/13 08:13:21;;;;;;;454.13;247.33;;;;;;;;;;5028897;28;20218;-73
2023/01/13 08:15:54;;;;;;;491.10;257.57;;;;;;;;;;5029042;28;20208;-73
2023/01/13 08:18:26;;;;;;;483.07;262.37;;;;;;;;;;5032427;28;20675;-72
2023/01/13 08:20:56;;;;;;;496.80;265.33;;;;;;;;;;5021817;28;20227;-72
2023/01/13 08:23:22;;;;;;;467.27;251.77;;;;;;;;;;5026796;28;20306;-72
2023/01/13 08:25:49;;;;;;;496.60;272.33;;;;;;;;;;5013312;28;20181;-73
2023/01/13 08:28:17;;;;;;;503.17;267.20;;;;;;;;;;5021295;28;20639;-73
2023/01/13 08:31:19;;;;;;;422.00;226.33;;;;;;;;;;5025229;28;20207;-71
2023/01/13 08:33:48;;;;;;;448.87;243.67;;;;;;;;;;5011686;28;20227;-69
2023/01/13 08:36:24;;;;;;;452.40;245.23;;;;;;;;;;5035329;28;20742;-69
2023/01/13 08:38:50;;;;;;;456.87;245.83;;;;;;;;;;5045017;28;20211;-69
2023/01/13 08:41:53;;;;;;;471.73;245.53;;;;;;;;;;5046505;28;20338;-69
2023/01/13 08:44:20;;;;;;;440.17;234.07;;;;;;;;;;5047919;28;20298;-69
2023/01/13 08:46:53;;;;;;;436.40;237.17;;;;;;;;;;5042078;28;20191;-71
2023/01/13 08:49:19;;;;;;;474.67;259.23;;;;;;;;;;5025164;28;20203;-72
2023/01/13 08:52:02;;;;;;;460.47;251.77;;;;;;;;;;5001695;28;20238;-72
2023/01/13 08:54:32;;;;;;;469.40;260.70;;;;;;;;;;5001941;28;20220;-71
2023/01/13 08:57:02;;;;;;;408.83;220.83;;;;;;;;;;5022970;28;20611;-69
2023/01/13 08:59:31;;;;;;;437.77;229.47;;;;;;;;;;5026841;28;20238;-69
2023/01/13 09:02:11;;;;;;;427.77;228.97;;;;;;;;;;5028421;28;20219;-70
2023/01/13 09:04:47;;;;;;;418.03;220.60;;;;;;;;;;5026747;28;20207;-69
2023/01/13 09:07:19;;;;;;;428.23;227.23;;;;;;;;;;5025976;28;20627;-69
2023/01/13 09:09:45;;;;;;;447.20;239.80;;;;;;;;;;5027473;28;20243;-69
2023/01/13 09:15:08;;;;;;;464.87;247.07;;;;;;;;;;5026219;28;20275;-69
2023/01/13 09:17:38;;;;;;;451.60;219.13;;;;;;;;;;4952715;23;20270;-76
2023/01/13 09:20:04;;;;;;;558.50;283.80;;;;;;;;;;4931355;28;20221;-74
2023/01/13 09:22:30;;;;;;;526.43;255.27;;;;;;;;;;4946476;28;20237;-75
2023/01/13 09:24:58;;;;;;;498.93;239.03;;;;;;;;;;4938631;28;20214;-76
2023/01/13 09:27:24;;;;;;;484.50;233.13;;;;;;;;;;4946778;28;20210;-75
2023/01/13 09:29:50;;;;;;;528.97;251.60;;;;;;;;;;4938238;28;20222;-76
2023/01/13 09:32:19;;;;;;;473.40;228.80;;;;;;;;;;4946034;28;20206;-76
2023/01/13 09:35:01;;;;;;;514.00;255.80;;;;;;;;;;4948364;28;20289;-75
2023/01/13 09:37:28;;;;;;;490.60;243.70;;;;;;;;;;4943509;28;20637;-76
2023/01/13 09:39:56;;;;;;;499.03;244.97;;;;;;;;;;4951740;28;20222;-74
2023/01/13 09:45:21;;;;;;;491.97;237.57;;;;;;;;;;4938946;28;20819;-76
2023/01/13 09:48:06;;;;;;;545.87;265.03;;;;;;;;;;4941979;28;20242;-75
2023/01/13 09:50:50;;;;;;;535.73;255.77;;;;;;;;;;4939276;28;20222;-74
2023/01/13 09:53:36;;;;;;;542.87;274.50;;;;;;;;;;4943827;28;20264;-76
2023/01/13 09:56:02;;;;;;;507.63;251.93;;;;;;;;;;4947492;28;20300;-74
2023/01/13 09:58:28;;;;;;;462.20;223.93;;;;;;;;;;4939258;28;20292;-73
2023/01/13 10:00:57;;;;;;;538.93;269.47;;;;;;;;;;4938676;28;20720;-76
2023/01/13 10:03:30;;;;;;;536.37;258.77;;;;;;;;;;4941190;28;20303;-75
2023/01/13 10:06:03;;;;;;;508.13;244.97;;;;;;;;;;4994416;28;20210;-75
2023/01/13 10:08:32;;;;;;;489.67;239.67;;;;;;;;;;4976513;28;20224;-74
2023/01/13 10:13:12;;;;;;;490.27;235.17;;;;;;;;;;5011749;28;20219;-76
2023/01/13 10:13:47;;;;;;;512.30;257.97;;;;;;;;;;4990818;28;20896;-76
2023/01/13 10:16:18;;;;;;;557.10;279.57;;;;;;;;;;4989884;28;20266;-74
2023/01/13 10:19:00;;;;;;;522.97;256.27;;;;;;;;;;4998408;28;20215;-75
2023/01/13 10:21:50;;;;;;;519.43;263.40;;;;;;;;;;5005050;28;20222;-76
2023/01/13 10:24:19;;;;;;;512.40;246.80;;;;;;;;;;5001144;28;20602;-76
2023/01/13 10:26:58;;;;;;;495.87;238.37;;;;;;;;;;5013235;28;20222;-75
2023/01/13 10:29:25;;;;;;;491.13;235.97;;;;;;;;;;5008831;28;20325;-75
2023/01/13 10:31:54;;;;;;;488.80;242.10;;;;;;;;;;5009983;28;20901;-75
2023/01/13 10:34:22;;;;;;;495.93;247.77;;;;;;;;;;4976694;28;20766;-73
2023/01/13 10:37:03;;;;;;;462.57;224.33;;;;;;;;;;5042898;28;20272;-74
2023/01/13 10:39:38;;;;;;;419.17;216.40;;;;;;;;;;5031753;28;20211;-74
2023/01/13 10:42:05;;;;;;;440.87;211.43;;;;;;;;;;5026069;28;20657;-74
2023/01/13 10:44:31;;;;;;;505.37;250.60;;;;;;;;;;5013304;28;20218;-75
2023/01/13 10:46:58;;;;;;;461.10;221.73;;;;;;;;;;5008919;28;20233;-74
2023/01/13 10:49:37;;;;;;;472.80;226.87;;;;;;;;;;5009228;28;20190;-73
2023/01/13 10:52:25;;;;;;;458.73;230.03;;;;;;;;;;5017774;28;20222;-75
2023/01/13 10:54:52;;;;;;;458.83;218.90;;;;;;;;;;5006321;28;20609;-73
2023/01/13 10:57:18;;;;;;;449.47;226.07;;;;;;;;;;5007718;28;20264;-74
2023/01/13 10:59:44;;;;;;;486.57;229.97;;;;;;;;;;5015534;28;20265;-73
2023/01/13 11:02:16;;;;;;;437.13;207.20;;;;;;;;;;5016100;28;20299;-75
2023/01/13 11:04:43;;;;;;;515.07;258.30;;;;;;;;;;5017348;28;21072;-73
2023/01/13 11:07:27;;;;;;;527.67;266.07;;;;;;;;;;5001082;28;20187;-73
2023/01/13 11:10:02;;;;;;;470.10;229.13;;;;;;;;;;5010486;28;20229;-73
2023/01/13 11:12:30;;;;;;;436.80;210.77;;;;;;;;;;5016852;28;20206;-74
2023/01/13 11:14:56;;;;;;;496.20;248.87;;;;;;;;;;4998533;28;20503;-69
2023/01/13 11:17:30;;;;;;;487.93;236.20;;;;;;;;;;4972901;28;20226;-69
2023/01/13 11:20:11;;;;;;;417.17;201.33;;;;;;;;;;4966132;28;20275;-70
2023/01/13 11:22:47;;;;;;;403.60;204.23;;;;;;;;;;5006946;28;20186;-70
2023/01/13 11:25:17;;;;;;;448.37;209.57;;;;;;;;;;4985634;28;20216;-70
2023/01/13 11:27:55;;;;;;;437.60;209.03;;;;;;;;;;4963372;28;20221;-70
2023/01/13 11:30:36;;;;;;;493.07;239.90;;;;;;;;;;4991607;28;21019;-73
2023/01/13 11:33:14;;;;;;;429.90;209.57;;;;;;;;;;4993092;28;20332;-74
2023/01/13 11:35:41;;;;;;;470.70;228.27;;;;;;;;;;4965740;28;20593;-72
2023/01/13 11:38:14;;;;;;;508.30;250.37;;;;;;;;;;4989470;28;20214;-75
2023/01/13 11:40:42;;;;;;;555.17;265.70;;;;;;;;;;4996508;28;21009;-60
2023/01/13 11:43:18;;;;;;;513.57;247.50;;;;;;;;;;4987593;28;20183;-60
2023/01/13 11:45:53;;;;;;;530.80;252.77;;;;;;;;;;5014838;28;20586;-60
2023/01/13 11:48:20;;;;;;;517.60;247.83;;;;;;;;;;4996333;28;20225;-73
2023/01/13 11:51:05;;;;;;;552.67;268.70;;;;;;;;;;4981002;28;20241;-73
2023/01/13 11:53:58;;;;;;;553.70;265.47;;;;;;;;;;5002286;28;20225;-73
2023/01/13 11:56:26;;;;;;;537.93;258.27;;;;;;;;;;4997760;28;20218;-73
2023/01/13 11:59:18;;;;;;;588.70;299.57;;;;;;;;;;4986773;28;20198;-77
2023/01/13 12:01:54;;;;;;;523.83;246.93;;;;;;;;;;4948278;28;20195;-73
2023/01/13 12:04:23;;;;;;;515.53;236.43;;;;;;;;;;5005835;28;20202;-73
2023/01/13 12:06:58;;;;;;;502.97;232.27;;;;;;;;;;5010980;28;20669;-76
2023/01/13 12:09:29;;;;;;;549.07;263.37;;;;;;;;;;5004250;28;20586;-77
2023/01/13 12:12:21;;;;;;;532.20;239.53;;;;;;;;;;4987774;28;20217;-72
2023/01/13 12:15:06;;;;;;;479.27;214.43;;;;;;;;;;5022431;28;20223;-76
2023/01/13 12:17:54;;;;;;;492.23;231.80;;;;;;;;;;5010044;28;20267;-74
2023/01/13 12:20:33;;;;;;;519.63;250.17;;;;;;;;;;5035899;28;20236;-74
2023/01/13 12:23:01;;;;;;;539.90;261.37;;;;;;;;;;5013975;28;20288;-73
2023/01/13 12:25:35;;;;;;;598.37;291.13;;;;;;;;;;4989030;28;23157;-78
2023/01/13 12:28:12;;;;;;;547.37;268.37;;;;;;;;;;4995964;28;20232;-76
2023/01/13 12:30:49;;;;;;;549.47;270.23;;;;;;;;;;4987187;28;20292;-75
2023/01/13 12:33:35;;;;;;;506.17;240.43;;;;;;;;;;4998697;28;20218;-73
2023/01/13 12:36:13;;;;;;;552.53;275.10;;;;;;;;;;4987456;28;20229;-78
2023/01/13 12:38:47;;;;;;;542.03;265.40;;;;;;;;;;5015147;28;20230;-76
2023/01/13 12:41:29;;;;;;;504.23;235.87;;;;;;;;;;5012128;28;20611;-76
2023/01/13 12:46:45;;;;;;;552.60;252.33;;;;;;;;;;5035993;28;20296;-74
2023/01/13 12:49:18;;;;;;;556.53;275.87;;;;;;;;;;5010295;28;20199;-77
2023/01/13 12:51:54;;;;;;;550.03;262.83;;;;;;;;;;5030445;28;20206;-73
2023/01/13 12:54:32;;;;;;;546.67;252.33;;;;;;;;;;5013000;28;20218;-73
2023/01/13 12:56:58;;;;;;;527.73;255.20;;;;;;;;;;4995630;28;20223;-76
2023/01/13 12:59:24;;;;;;;509.73;233.40;;;;;;;;;;4992671;28;20214;-75
2023/01/13 13:01:51;;;;;;;535.50;245.03;;;;;;;;;;5025154;28;20551;-76
2023/01/13 13:04:18;;;;;;;513.03;250.10;;;;;;;;;;5009900;28;20195;-76
2023/01/13 13:06:49;;;;;;;506.23;235.20;;;;;;;;;;5018265;28;20242;-75
2023/01/13 13:09:22;;;;;;;601.53;301.07;;;;;;;;;;4997655;28;20207;-79
2023/01/13 13:14:36;;;;;;;547.07;269.43;;;;;;;;;;5011025;28;20233;-74
2023/01/13 13:17:03;;;;;;;553.20;265.37;;;;;;;;;;5013686;28;20758;-74
2023/01/13 13:19:29;;;;;;;577.80;286.60;;;;;;;;;;4994105;28;20234;-75
2023/01/13 13:22:15;;;;;;;581.67;280.30;;;;;;;;;;5031328;28;20733;-76
2023/01/13 13:24:50;;;;;;;552.60;270.63;;;;;;;;;;4986239;28;20218;-76
2023/01/13 13:27:18;;;;;;;596.53;301.23;;;;;;;;;;5002385;28;20221;-74
2023/01/13 13:29:56;;;;;;;586.23;276.67;;;;;;;;;;5025237;28;20246;-74
2023/01/13 13:32:33;;;;;;;600.83;284.20;;;;;;;;;;4973777;28;20228;-74
2023/01/13 13:35:02;;;;;;;565.87;272.43;;;;;;;;;;5009340;28;20222;-73
2023/01/13 13:49:05;;;;;;;567.87;267.73;;;;;;;;;;5025754;28;20267;-75
2023/01/13 13:51:36;;;;;;;630.67;300.77;;;;;;;;;;5007934;28;20222;-77
2023/01/13 13:54:01;;;;;;;580.23;278.90;;;;;;;;;;4987861;28;20361;-70
2023/01/13 13:56:28;;;;;;;674.20;333.27;;;;;;;;;;4982614;28;20226;-72
2023/01/13 13:58:54;;;;;;;621.67;291.53;;;;;;;;;;4993857;28;20210;-74
2023/01/13 14:01:28;;;;;;;600.57;275.60;;;;;;;;;;5012680;28;20562;-73
2023/01/13 14:04:05;;;;;;;584.40;278.93;;;;;;;;;;4979429;28;22348;-74
2023/01/13 14:06:31;;;;;;;555.70;257.70;;;;;;;;;;5020969;28;20301;-73
2023/01/13 14:08:57;;;;;;;574.43;264.97;;;;;;;;;;5028459;28;20203;-73
2023/01/13 14:11:28;;;;;;;557.33;259.13;;;;;;;;;;5020543;28;20736;-72
2023/01/13 14:14:11;;;;;;;626.73;292.13;;;;;;;;;;4986409;28;20545;-72
2023/01/13 14:16:39;;;;;;;592.43;273.37;;;;;;;;;;5016694;28;20582;-70
2023/01/13 14:19:05;;;;;;;573.27;253.40;;;;;;;;;;5006468;28;20175;-70
2023/01/13 14:21:31;;;;;;;544.20;248.97;;;;;;;;;;5010418;28;20218;-71
2023/01/13 14:23:59;;;;;;;563.33;251.97;;;;;;;;;;5005975;28;20229;-70
2023/01/13 14:26:26;;;;;;;595.50;270.10;;;;;;;;;;5035902;28;20368;-69
2023/01/13 14:28:52;;;;;;;617.07;281.70;;;;;;;;;;4993693;28;20251;-70
2023/01/13 14:31:19;;;;;;;601.70;283.87;;;;;;;;;;5006675;28;20183;-72
2023/01/13 14:33:46;;;;;;;547.00;249.77;;;;;;;;;;5014535;28;20309;-71
2023/01/13 14:36:19;;;;;;;577.60;261.83;;;;;;;;;;5018111;28;20198;-72
2023/01/13 14:38:47;;;;;;;654.20;297.80;;;;;;;;;;4988417;28;20399;-71
2023/01/13 14:41:21;;;;;;;567.43;261.20;;;;;;;;;;4989332;28;20284;-70
2023/01/13 14:43:48;;;;;;;542.30;247.57;;;;;;;;;;5000825;28;20354;-72
2023/01/13 14:46:16;;;;;;;546.03;247.63;;;;;;;;;;5050622;28;20286;-72
2023/01/13 14:48:45;;;;;;;555.03;257.80;;;;;;;;;;4993183;28;20674;-71
2023/01/13 14:51:13;;;;;;;577.57;265.10;;;;;;;;;;5006376;28;20288;-72
2023/01/13 14:53:45;;;;;;;532.03;243.43;;;;;;;;;;5021680;28;20219;-72
2023/01/13 14:56:30;;;;;;;554.10;245.67;;;;;;;;;;4996168;28;20225;-71
2023/01/13 14:58:56;;;;;;;506.70;228.97;;;;;;;;;;5007462;28;20230;-72
2023/01/13 15:01:25;;;;;;;590.70;285.67;;;;;;;;;;5013204;28;20225;-69
2023/01/13 15:03:51;;;;;;;543.20;260.93;;;;;;;;;;5012180;28;20313;-69
2023/01/13 15:06:24;;;;;;;612.03;301.63;;;;;;;;;;5008507;28;20218;-69
2023/01/13 15:08:51;;;;;;;538.63;246.23;;;;;;;;;;4994374;28;20210;-70
2023/01/13 15:11:22;;;;;;;556.77;266.60;;;;;;;;;;4996212;28;20215;-68
2023/01/13 15:13:53;;;;;;;578.83;289.13;;;;;;;;;;4995402;28;20244;-69
2023/01/13 15:16:24;;;;;;;598.53;282.23;;;;;;;;;;5006932;28;20204;-69